Time;durP1;ratioP1;P1;durP2;ratioP2;P2;SDS_P1;SDS_P2;PMS_P1;PMS_P2;Temp;Humidity;BMP_temperature;BMP_pressure;BME280_temperature;BME280_humidity;BME280_pressure;Samples;Min_cycle;Max_cycle;Signal;HPM_P1;HPM_P2
2021/10/03 00:01:59;;;;;;;5.50;3.00;;;19.30;99.90;;;;;;5051114;28;20430;-80
2021/10/03 00:04:27;;;;;;;5.27;2.57;;;19.30;99.90;;;;;;5051730;28;20542;-80
2021/10/03 00:06:54;;;;;;;11.10;2.43;;;19.30;99.90;;;;;;5052555;28;20423;-80
2021/10/03 00:09:21;;;;;;;4.47;2.87;;;19.30;99.90;;;;;;5051871;28;20425;-80
2021/10/03 00:11:48;;;;;;;3.70;2.20;;;19.30;99.90;;;;;;5050982;28;20422;-80
2021/10/03 00:14:14;;;;;;;5.30;2.40;;;19.30;99.90;;;;;;5051283;28;20486;-80
2021/10/03 00:16:40;;;;;;;3.27;2.00;;;19.30;99.90;;;;;;5051256;28;20513;-80
2021/10/03 00:19:07;;;;;;;4.07;2.17;;;19.40;99.90;;;;;;5052077;28;20479;-80
2021/10/03 00:21:33;;;;;;;4.13;2.63;;;19.40;99.90;;;;;;5051570;28;20430;-79
2021/10/03 00:23:58;;;;;;;3.90;2.13;;;19.40;99.90;;;;;;5051279;28;20568;-80
2021/10/03 00:26:24;;;;;;;4.00;2.00;;;19.40;99.90;;;;;;5052401;28;21185;-80
2021/10/03 00:28:50;;;;;;;4.13;2.00;;;19.40;99.90;;;;;;5051992;28;20604;-80
2021/10/03 00:31:16;;;;;;;3.30;2.10;;;19.40;99.90;;;;;;5051167;28;20471;-80
2021/10/03 00:33:42;;;;;;;3.73;2.20;;;19.50;99.90;;;;;;5050872;28;20773;-80
2021/10/03 00:36:08;;;;;;;3.93;2.30;;;19.50;99.90;;;;;;5052006;28;20188;-80
2021/10/03 00:38:34;;;;;;;3.53;2.13;;;19.50;99.90;;;;;;5051374;28;20550;-80
2021/10/03 00:41:00;;;;;;;3.40;2.40;;;19.60;99.90;;;;;;5051758;28;20465;-80
2021/10/03 00:43:26;;;;;;;3.30;2.00;;;19.50;99.90;;;;;;5051272;28;20213;-80
2021/10/03 00:45:52;;;;;;;4.90;2.27;;;19.50;99.90;;;;;;5052108;28;20274;-80
2021/10/03 00:48:18;;;;;;;3.50;2.30;;;19.50;99.90;;;;;;5055808;28;20429;-80
2021/10/03 00:50:49;;;;;;;3.83;2.10;;;19.50;99.90;;;;;;5055357;28;20418;-80
2021/10/03 00:53:16;;;;;;;3.67;2.60;;;19.50;99.90;;;;;;5056820;28;20657;-80
2021/10/03 00:55:43;;;;;;;3.60;2.40;;;19.40;99.90;;;;;;5056234;28;20533;-80
2021/10/03 00:58:09;;;;;;;3.40;2.23;;;19.40;99.90;;;;;;5056326;28;20429;-80
2021/10/03 01:00:37;;;;;;;3.90;2.50;;;19.40;99.90;;;;;;5054703;28;20418;-80
2021/10/03 01:03:05;;;;;;;4.50;2.20;;;19.40;99.90;;;;;;5055047;28;20437;-80
2021/10/03 01:05:32;;;;;;;3.47;2.07;;;19.30;99.90;;;;;;5054682;28;20537;-80
2021/10/03 01:07:59;;;;;;;5.40;2.30;;;19.30;99.90;;;;;;5058987;28;20437;-81
2021/10/03 01:10:27;;;;;;;3.50;2.50;;;19.30;99.90;;;;;;5058954;28;20414;-80
2021/10/03 01:13:03;;;;;;;3.70;2.47;;;19.20;99.90;;;;;;5058573;28;20422;-80
2021/10/03 01:15:31;;;;;;;4.03;2.50;;;19.20;99.90;;;;;;5057960;28;20472;-81
2021/10/03 01:17:57;;;;;;;4.93;1.93;;;19.20;99.90;;;;;;5058485;28;20456;-80
2021/10/03 01:20:23;;;;;;;3.57;2.10;;;19.20;99.90;;;;;;5057263;28;20966;-81
2021/10/03 01:22:50;;;;;;;4.10;2.50;;;19.30;99.90;;;;;;5057535;28;20811;-80
2021/10/03 01:25:17;;;;;;;3.33;2.20;;;19.20;99.90;;;;;;5056839;28;20476;-80
2021/10/03 01:27:43;;;;;;;4.20;2.17;;;19.30;99.90;;;;;;5057292;28;20436;-80
2021/10/03 01:30:12;;;;;;;3.90;2.40;;;19.20;99.90;;;;;;5056452;28;20429;-80
2021/10/03 01:32:38;;;;;;;4.77;2.27;;;19.20;99.90;;;;;;5056818;28;20425;-80
2021/10/03 01:35:05;;;;;;;3.70;2.20;;;19.20;99.90;;;;;;5056573;28;20446;-80
2021/10/03 01:37:33;;;;;;;3.87;2.17;;;19.20;99.90;;;;;;5056587;28;20436;-81
2021/10/03 01:40:01;;;;;;;3.23;2.27;;;19.20;99.90;;;;;;5056308;28;20426;-80
2021/10/03 01:42:27;;;;;;;3.40;2.10;;;19.20;99.90;;;;;;5055532;28;20480;-81
2021/10/03 01:44:53;;;;;;;4.07;2.37;;;19.20;99.90;;;;;;5055758;28;20478;-80
2021/10/03 01:47:19;;;;;;;6.30;2.73;;;19.10;99.90;;;;;;5056327;28;20175;-80
2021/10/03 01:49:47;;;;;;;3.67;2.17;;;19.10;99.90;;;;;;5055993;28;20670;-80
2021/10/03 01:52:13;;;;;;;4.20;2.70;;;19.10;99.90;;;;;;5055993;28;20263;-80
2021/10/03 01:54:39;;;;;;;3.97;2.20;;;19.00;99.90;;;;;;5054982;28;20897;-80
2021/10/03 01:57:05;;;;;;;4.70;2.70;;;19.00;99.90;;;;;;5054813;28;20196;-80
2021/10/03 01:59:31;;;;;;;4.93;2.60;;;19.00;99.90;;;;;;5055065;28;20911;-80
2021/10/03 02:01:58;;;;;;;3.90;2.40;;;18.90;99.90;;;;;;5054457;28;20233;-80
2021/10/03 02:04:25;;;;;;;5.53;3.70;;;18.80;99.90;;;;;;5054616;28;20536;-80
2021/10/03 02:06:53;;;;;;;3.83;2.30;;;18.80;99.90;;;;;;5054694;28;20960;-80
2021/10/03 02:09:22;;;;;;;4.50;2.37;;;18.70;99.90;;;;;;5054318;28;20417;-80
2021/10/03 02:11:54;;;;;;;5.20;2.70;;;18.70;99.90;;;;;;5054447;28;20410;-80
2021/10/03 02:14:21;;;;;;;3.73;2.23;;;18.70;99.90;;;;;;5054088;28;20496;-80
2021/10/03 02:16:47;;;;;;;4.50;2.53;;;18.60;99.90;;;;;;5054332;28;20426;-81
2021/10/03 02:19:13;;;;;;;5.10;2.60;;;18.60;99.90;;;;;;5054702;28;20422;-80
2021/10/03 02:21:40;;;;;;;3.47;2.00;;;18.60;99.90;;;;;;5053810;28;20418;-80
2021/10/03 02:24:07;;;;;;;4.57;2.27;;;18.60;99.90;;;;;;5053720;28;20207;-80
2021/10/03 02:26:33;;;;;;;5.13;2.67;;;18.60;99.90;;;;;;5053770;28;20407;-80
2021/10/03 02:28:59;;;;;;;4.50;2.50;;;18.60;99.90;;;;;;5053520;28;20829;-80
2021/10/03 02:31:25;;;;;;;7.50;2.50;;;18.60;99.90;;;;;;5053984;28;20539;-80
2021/10/03 02:33:52;;;;;;;5.10;2.40;;;18.60;99.90;;;;;;5052941;28;20555;-80
2021/10/03 02:36:20;;;;;;;4.23;2.47;;;18.60;99.90;;;;;;5052932;28;20243;-80
2021/10/03 02:38:46;;;;;;;4.63;2.60;;;18.60;99.90;;;;;;5053008;28;20418;-80
2021/10/03 02:41:13;;;;;;;4.30;2.47;;;18.50;99.90;;;;;;5053367;28;20685;-80
2021/10/03 02:43:41;;;;;;;4.73;3.13;;;18.50;99.90;;;;;;5052987;28;20469;-80
2021/10/03 02:46:08;;;;;;;4.30;2.67;;;18.50;99.90;;;;;;5053101;28;20426;-80
2021/10/03 02:48:35;;;;;;;4.57;2.50;;;18.50;99.90;;;;;;5053478;28;20422;-80
2021/10/03 02:51:02;;;;;;;4.20;3.10;;;18.50;99.90;;;;;;5053247;28;20418;-80
2021/10/03 02:53:27;;;;;;;5.00;2.60;;;18.40;99.90;;;;;;5052660;28;20424;-80
2021/10/03 02:55:54;;;;;;;4.60;2.47;;;18.40;99.90;;;;;;5052599;28;20419;-79
2021/10/03 02:58:20;;;;;;;5.00;2.47;;;18.40;99.90;;;;;;5053277;28;20188;-80
2021/10/03 03:00:49;;;;;;;6.10;3.00;;;18.40;99.90;;;;;;5053166;28;20429;-80
2021/10/03 03:03:14;;;;;;;5.00;2.90;;;18.40;99.90;;;;;;5052835;28;20491;-80
2021/10/03 03:05:40;;;;;;;4.00;2.60;;;18.40;99.90;;;;;;5052532;28;20426;-79
2021/10/03 03:08:06;;;;;;;4.20;2.93;;;18.40;99.90;;;;;;5052426;28;20714;-79
2021/10/03 03:10:32;;;;;;;3.33;2.43;;;18.40;99.90;;;;;;5052468;28;20180;-80
2021/10/03 03:12:59;;;;;;;6.30;3.10;;;18.50;99.90;;;;;;5052179;28;20932;-80
2021/10/03 03:15:25;;;;;;;5.60;3.40;;;18.50;99.90;;;;;;5052429;28;20488;-80
2021/10/03 03:17:51;;;;;;;4.30;3.00;;;18.40;99.90;;;;;;5052753;28;20422;-80
2021/10/03 03:20:20;;;;;;;5.97;2.87;;;18.50;99.90;;;;;;5052650;28;20426;-80
2021/10/03 03:22:46;;;;;;;5.00;2.73;;;18.50;99.90;;;;;;5051723;28;20441;-80
2021/10/03 03:25:14;;;;;;;4.37;2.60;;;18.50;99.90;;;;;;5052693;28;20473;-80
2021/10/03 03:27:40;;;;;;;5.20;3.17;;;18.50;99.90;;;;;;5051986;28;20180;-80
2021/10/03 03:30:08;;;;;;;4.60;3.43;;;18.60;99.90;;;;;;5052023;28;20446;-80
2021/10/03 03:32:34;;;;;;;5.03;3.13;;;18.60;99.90;;;;;;5051747;28;20878;-80
2021/10/03 03:35:00;;;;;;;4.63;3.10;;;18.60;99.90;;;;;;5051825;28;20474;-80
2021/10/03 03:37:26;;;;;;;5.30;3.37;;;18.70;99.90;;;;;;5052041;28;20179;-80
2021/10/03 03:39:52;;;;;;;5.27;3.00;;;18.70;99.90;;;;;;5051965;28;20188;-80
2021/10/03 03:42:17;;;;;;;4.17;2.93;;;18.70;99.90;;;;;;5051421;28;20975;-80
2021/10/03 03:44:43;;;;;;;6.30;3.57;;;18.80;99.90;;;;;;5051827;28;20212;-80
2021/10/03 03:47:09;;;;;;;5.23;3.30;;;18.80;99.90;;;;;;5052068;28;20180;-80
2021/10/03 03:49:35;;;;;;;4.77;3.10;;;18.80;99.90;;;;;;5051436;28;20442;-80
2021/10/03 03:52:05;;;;;;;4.33;2.90;;;18.90;99.90;;;;;;5051660;28;20180;-79
2021/10/03 03:54:31;;;;;;;7.50;3.87;;;18.90;99.90;;;;;;5051203;28;20442;-80
2021/10/03 03:56:56;;;;;;;6.40;4.10;;;18.90;99.90;;;;;;5051622;28;20507;-80
2021/10/03 03:59:25;;;;;;;6.77;4.03;;;19.00;99.90;;;;;;5051767;28;20595;-80
2021/10/03 04:01:52;;;;;;;7.30;3.63;;;19.00;99.90;;;;;;5053007;28;20225;-80
2021/10/03 04:04:17;;;;;;;6.17;4.40;;;19.00;99.90;;;;;;5054945;28;20474;-81
2021/10/03 04:06:43;;;;;;;9.10;3.97;;;19.00;99.90;;;;;;5055483;28;20480;-81
2021/10/03 04:09:09;;;;;;;6.60;4.30;;;19.10;99.90;;;;;;5055235;28;20176;-80
2021/10/03 04:11:35;;;;;;;8.80;4.17;;;19.10;99.90;;;;;;5055273;28;20211;-80
2021/10/03 04:14:01;;;;;;;5.63;3.30;;;19.10;99.90;;;;;;5054532;28;20212;-80
2021/10/03 04:16:26;;;;;;;6.63;4.20;;;19.10;99.90;;;;;;5054293;28;20202;-80
2021/10/03 04:18:55;;;;;;;7.63;4.23;;;19.20;99.90;;;;;;5053963;28;20430;-80
2021/10/03 04:21:21;;;;;;;4.90;3.40;;;19.20;99.90;;;;;;5054037;28;20290;-80
2021/10/03 04:23:47;;;;;;;7.00;4.10;;;19.30;99.90;;;;;;5053653;28;20564;-81
2021/10/03 04:26:13;;;;;;;7.60;3.80;;;19.30;99.90;;;;;;5053774;28;20948;-80
2021/10/03 04:28:38;;;;;;;8.20;5.13;;;19.40;99.90;;;;;;5053127;28;20258;-80
2021/10/03 04:31:04;;;;;;;4.90;3.80;;;19.50;99.90;;;;;;5053034;28;20690;-80
2021/10/03 04:33:30;;;;;;;6.90;4.17;;;19.50;99.90;;;;;;5052799;28;20210;-80
2021/10/03 04:35:56;;;;;;;6.13;4.10;;;19.50;99.90;;;;;;5053379;28;20597;-80
2021/10/03 04:38:21;;;;;;;4.57;3.83;;;19.50;99.90;;;;;;5053177;28;20187;-80
2021/10/03 04:40:47;;;;;;;5.60;3.80;;;19.50;99.90;;;;;;5053003;28;20541;-80
2021/10/03 04:43:16;;;;;;;5.17;3.60;;;19.50;99.90;;;;;;5052455;28;20191;-80
2021/10/03 04:45:42;;;;;;;8.50;4.10;;;19.50;99.90;;;;;;5052442;28;20199;-80
2021/10/03 04:48:08;;;;;;;6.53;4.00;;;19.60;99.90;;;;;;5052941;28;20477;-80
2021/10/03 04:50:34;;;;;;;6.90;3.50;;;19.60;99.90;;;;;;5052576;28;20176;-80
2021/10/03 04:53:00;;;;;;;7.10;4.60;;;19.60;99.90;;;;;;5052030;28;20428;-80
2021/10/03 04:55:26;;;;;;;5.70;3.70;;;19.60;99.90;;;;;;5051962;28;20457;-80
2021/10/03 04:57:51;;;;;;;6.10;3.47;;;19.60;99.90;;;;;;5052094;28;20202;-80
2021/10/03 05:00:20;;;;;;;7.27;3.90;;;19.60;99.90;;;;;;5051976;28;20184;-80
2021/10/03 05:02:46;;;;;;;5.90;4.00;;;19.60;99.90;;;;;;5052293;28;20211;-80
2021/10/03 05:05:12;;;;;;;5.43;3.90;;;19.70;99.90;;;;;;5051429;28;20470;-80
2021/10/03 05:07:37;;;;;;;5.30;3.83;;;19.80;99.90;;;;;;5051871;28;20214;-80
2021/10/03 05:10:04;;;;;;;6.77;4.13;;;19.70;99.90;;;;;;5051926;28;20207;-80
2021/10/03 05:12:31;;;;;;;5.00;3.77;;;19.70;99.90;;;;;;5051285;28;20191;-80
2021/10/03 05:14:57;;;;;;;7.17;4.17;;;19.80;99.90;;;;;;5051338;28;20481;-81
2021/10/03 05:17:23;;;;;;;5.70;3.83;;;19.80;99.90;;;;;;5051236;28;20487;-80
2021/10/03 05:19:48;;;;;;;6.83;4.60;;;19.80;99.90;;;;;;5051759;28;20279;-80
2021/10/03 05:24:42;;;;;;;6.63;3.60;;;19.80;99.90;;;;;;5050832;28;20230;-83
2021/10/03 05:27:11;;;;;;;4.67;3.90;;;19.80;99.90;;;;;;5054686;28;20407;-84
2021/10/03 05:29:42;;;;;;;5.27;3.80;;;19.90;99.90;;;;;;5054322;28;20199;-82
2021/10/03 05:32:08;;;;;;;6.30;4.53;;;19.80;99.90;;;;;;5052790;28;20406;-83
2021/10/03 05:34:33;;;;;;;6.90;3.83;;;19.90;99.90;;;;;;5072184;28;20843;-83
2021/10/03 05:36:59;;;;;;;5.07;3.73;;;19.80;99.90;;;;;;5056130;28;20258;-83
2021/10/03 05:39:25;;;;;;;5.53;4.00;;;19.80;99.90;;;;;;5057423;28;20215;-83
2021/10/03 05:41:50;;;;;;;7.73;3.97;;;19.80;99.90;;;;;;5055587;28;20186;-83
2021/10/03 05:44:16;;;;;;;8.00;3.93;;;19.80;99.90;;;;;;5057013;28;20700;-83
2021/10/03 05:46:41;;;;;;;5.97;3.57;;;19.90;99.90;;;;;;5072344;28;20262;-83
2021/10/03 05:49:07;;;;;;;6.73;4.10;;;19.90;99.90;;;;;;5072353;28;20205;-83
2021/10/03 05:51:35;;;;;;;4.13;3.63;;;19.90;99.90;;;;;;5072220;28;20663;-83
2021/10/03 05:54:01;;;;;;;8.00;3.97;;;19.90;99.90;;;;;;5071645;28;20203;-83
2021/10/03 05:56:27;;;;;;;9.20;5.03;;;20.00;99.90;;;;;;5071865;28;20787;-83
2021/10/03 05:58:53;;;;;;;5.90;4.40;;;19.90;99.90;;;;;;5055333;28;20541;-84
2021/10/03 06:01:18;;;;;;;7.43;4.13;;;19.90;99.90;;;;;;5072074;28;20270;-84
2021/10/03 06:03:44;;;;;;;8.33;3.70;;;19.80;99.90;;;;;;5071299;28;20204;-83
2021/10/03 06:06:09;;;;;;;5.20;3.90;;;19.90;99.90;;;;;;5071636;28;20176;-83
2021/10/03 06:08:35;;;;;;;7.13;4.00;;;19.90;99.90;;;;;;5071683;28;20218;-83
2021/10/03 06:11:00;;;;;;;8.70;5.40;;;19.90;99.90;;;;;;5071301;28;20176;-84
2021/10/03 06:13:26;;;;;;;7.20;4.30;;;20.00;99.90;;;;;;5071201;28;20200;-83
2021/10/03 06:15:54;;;;;;;6.53;4.13;;;19.90;99.90;;;;;;5056470;28;20178;-83
2021/10/03 06:18:21;;;;;;;6.50;4.23;;;19.90;99.90;;;;;;5054284;28;20203;-82
2021/10/03 06:20:47;;;;;;;5.37;3.80;;;19.90;99.90;;;;;;5071267;28;20573;-83
2021/10/03 06:23:15;;;;;;;5.40;4.37;;;20.00;99.90;;;;;;5073218;22;21042;-77
2021/10/03 06:25:41;;;;;;;6.47;4.20;;;20.00;99.90;;;;;;5056341;28;20923;-78
2021/10/03 06:28:07;;;;;;;7.13;4.10;;;20.00;99.90;;;;;;5056503;28;20414;-77
2021/10/03 06:30:34;;;;;;;6.10;4.43;;;20.00;99.90;;;;;;5056760;28;20616;-78
2021/10/03 06:33:00;;;;;;;5.90;4.33;;;20.00;99.90;;;;;;5055007;28;20790;-77
2021/10/03 06:35:28;;;;;;;7.33;4.20;;;20.00;99.90;;;;;;5053257;28;20438;-77
2021/10/03 06:37:55;;;;;;;6.47;3.77;;;20.00;99.90;;;;;;5053441;28;20552;-78
2021/10/03 06:40:21;;;;;;;5.40;4.13;;;20.00;99.90;;;;;;5053415;28;20415;-78
2021/10/03 06:42:47;;;;;;;6.53;4.30;;;20.00;99.90;;;;;;5052991;28;20423;-78
2021/10/03 06:45:12;;;;;;;7.43;3.60;;;20.00;99.90;;;;;;5052915;28;20848;-77
2021/10/03 06:47:38;;;;;;;8.60;4.03;;;20.10;99.90;;;;;;5053233;28;20599;-78
2021/10/03 06:50:05;;;;;;;4.80;3.73;;;20.10;99.90;;;;;;5053056;28;20595;-78
2021/10/03 06:52:31;;;;;;;6.90;4.33;;;20.10;99.90;;;;;;5052749;28;20553;-78
2021/10/03 06:54:57;;;;;;;6.63;4.00;;;20.10;99.90;;;;;;5052644;28;20456;-78
2021/10/03 06:57:22;;;;;;;7.90;4.17;;;20.10;99.90;;;;;;5052688;28;20724;-78
2021/10/03 06:59:48;;;;;;;6.87;4.00;;;20.00;99.90;;;;;;5052934;28;20276;-77
2021/10/03 07:02:33;;;;;;;6.13;4.03;;;20.00;99.90;;;;;;5052337;28;20180;-77
2021/10/03 07:04:59;;;;;;;6.83;4.23;;;20.00;99.90;;;;;;5052694;28;20714;-77
2021/10/03 07:07:24;;;;;;;7.00;4.33;;;19.90;99.90;;;;;;5052343;28;20489;-77
2021/10/03 07:09:50;;;;;;;6.50;4.27;;;19.80;99.90;;;;;;5052604;28;20181;-77
2021/10/03 07:12:16;;;;;;;6.07;4.30;;;19.70;99.90;;;;;;5052102;28;20175;-78
2021/10/03 07:14:43;;;;;;;5.90;4.20;;;19.60;99.90;;;;;;5052651;28;20219;-77
2021/10/03 07:17:10;;;;;;;6.00;4.17;;;19.50;99.90;;;;;;5052592;28;20180;-78
2021/10/03 07:19:36;;;;;;;6.00;4.23;;;19.30;99.90;;;;;;5052892;28;20429;-77
2021/10/03 07:22:02;;;;;;;6.40;4.37;;;19.10;99.90;;;;;;5052326;28;20415;-77
2021/10/03 07:24:31;;;;;;;5.73;4.20;;;19.00;99.90;;;;;;5052741;28;20216;-77
2021/10/03 07:26:57;;;;;;;7.63;4.97;;;18.90;99.90;;;;;;5052610;28;20422;-77
2021/10/03 07:29:23;;;;;;;7.73;4.90;;;18.80;99.90;;;;;;5052733;28;21001;-77
2021/10/03 07:31:49;;;;;;;7.40;5.00;;;18.70;99.90;;;;;;5052156;28;20410;-77
2021/10/03 07:34:15;;;;;;;8.40;4.80;;;18.60;99.90;;;;;;5051971;28;21014;-78
2021/10/03 07:36:41;;;;;;;7.53;4.50;;;18.50;99.90;;;;;;5052391;28;20421;-77
2021/10/03 07:39:07;;;;;;;7.80;4.40;;;18.40;99.90;;;;;;5052466;28;20184;-77
2021/10/03 07:41:33;;;;;;;7.03;4.37;;;18.40;99.90;;;;;;5052438;28;20418;-75
2021/10/03 07:43:59;;;;;;;6.13;4.70;;;18.40;99.90;;;;;;5051941;28;20473;-78
2021/10/03 07:46:24;;;;;;;6.17;4.50;;;18.40;99.90;;;;;;5052472;28;20190;-76
2021/10/03 07:48:50;;;;;;;6.80;4.83;;;18.40;99.90;;;;;;5052164;28;20176;-76
2021/10/03 07:51:16;;;;;;;5.87;4.20;;;18.40;99.90;;;;;;5052548;28;20176;-77
2021/10/03 07:53:42;;;;;;;5.87;4.23;;;18.40;99.90;;;;;;5051908;28;20446;-77
2021/10/03 07:56:08;;;;;;;6.03;4.50;;;18.40;99.90;;;;;;5051845;28;20190;-77
2021/10/03 07:58:34;;;;;;;6.53;4.50;;;18.40;99.90;;;;;;5052844;28;20418;-76
2021/10/03 08:01:00;;;;;;;6.93;4.20;;;18.50;99.90;;;;;;5052392;28;20183;-77
2021/10/03 08:03:25;;;;;;;6.27;4.10;;;18.60;99.90;;;;;;5052280;28;20186;-76
2021/10/03 08:05:51;;;;;;;7.23;4.93;;;18.60;99.90;;;;;;5052760;28;20175;-77
2021/10/03 08:08:17;;;;;;;6.90;4.77;;;18.60;99.90;;;;;;5052622;28;20357;-77
2021/10/03 08:10:44;;;;;;;6.17;4.37;;;18.60;99.90;;;;;;5053306;28;20233;-77
2021/10/03 08:13:12;;;;;;;5.77;4.50;;;18.60;99.90;;;;;;5052376;28;20175;-77
2021/10/03 08:15:39;;;;;;;6.43;4.50;;;18.60;99.90;;;;;;5052813;28;20457;-77
2021/10/03 08:18:06;;;;;;;5.63;3.87;;;18.60;99.90;;;;;;5036057;28;20800;-77
2021/10/03 08:20:33;;;;;;;5.37;4.00;;;18.60;99.90;;;;;;5052655;28;20479;-77
2021/10/03 08:22:59;;;;;;;6.30;4.27;;;18.70;99.90;;;;;;5052160;28;20199;-77
2021/10/03 08:25:25;;;;;;;6.37;3.80;;;18.70;99.90;;;;;;5052627;28;20465;-77
2021/10/03 08:27:51;;;;;;;6.97;4.60;;;18.80;99.90;;;;;;5052421;28;20480;-77
2021/10/03 08:30:17;;;;;;;6.60;4.53;;;18.80;99.90;;;;;;5052372;28;20182;-77
2021/10/03 08:32:43;;;;;;;5.80;3.93;;;18.80;99.90;;;;;;5052394;28;20216;-77
2021/10/03 08:35:09;;;;;;;6.50;4.17;;;18.90;99.90;;;;;;5054376;28;20455;-78
2021/10/03 08:37:36;;;;;;;6.00;4.30;;;19.00;99.90;;;;;;5054207;28;20450;-78
2021/10/03 08:40:04;;;;;;;8.10;4.20;;;19.00;99.90;;;;;;5054882;28;20804;-78
2021/10/03 08:42:29;;;;;;;6.83;4.77;;;19.00;99.90;;;;;;5055133;28;20426;-78
2021/10/03 08:44:55;;;;;;;6.40;4.07;;;19.00;99.90;;;;;;5055144;28;20894;-78
2021/10/03 08:47:25;;;;;;;5.37;3.97;;;18.90;99.90;;;;;;5055320;28;20230;-78
2021/10/03 08:49:55;;;;;;;5.93;4.43;;;19.00;99.90;;;;;;5054408;28;20180;-77
2021/10/03 08:52:22;;;;;;;6.87;3.93;;;19.00;99.90;;;;;;5054388;28;20418;-77
2021/10/03 08:54:48;;;;;;;6.77;4.10;;;19.10;99.90;;;;;;5054135;28;20446;-77
2021/10/03 08:57:14;;;;;;;7.40;4.00;;;19.10;99.90;;;;;;5053542;28;20419;-78
2021/10/03 09:00:17;;;;;;;6.87;3.83;;;19.00;99.90;;;;;;5053092;28;20521;-77
2021/10/03 09:03:07;;;;;;;5.73;4.20;;;19.00;99.90;;;;;;5011832;28;20278;-77
2021/10/03 09:05:39;;;;;;;5.43;3.83;;;19.10;99.90;;;;;;5053445;28;20895;-77
2021/10/03 09:08:38;;;;;;;5.23;4.07;;;19.10;99.90;;;;;;5056581;28;20418;-77
2021/10/03 09:11:07;;;;;;;7.93;4.10;;;19.20;99.90;;;;;;5039827;28;20467;-77
2021/10/03 09:13:33;;;;;;;5.77;4.07;;;19.20;99.90;;;;;;5056830;28;20421;-76
2021/10/03 09:16:24;;;;;;;5.57;4.07;;;19.30;99.90;;;;;;5057398;28;20916;-77
2021/10/03 09:19:01;;;;;;;4.73;3.70;;;19.40;99.90;;;;;;5057669;28;20611;-77
2021/10/03 09:21:30;;;;;;;6.43;4.03;;;19.50;99.90;;;;;;5057505;28;20418;-78
2021/10/03 09:24:06;;;;;;;6.07;4.63;;;19.50;99.90;;;;;;5057853;28;20487;-76
2021/10/03 09:26:33;;;;;;;5.63;3.93;;;19.50;99.90;;;;;;5057666;28;20418;-77
2021/10/03 09:29:20;;;;;;;4.90;3.30;;;19.60;99.90;;;;;;5055708;28;20612;-77
2021/10/03 09:32:25;;;;;;;6.07;3.97;;;19.70;99.90;;;;;;5054204;28;20436;-78
2021/10/03 09:34:52;;;;;;;5.17;3.57;;;19.80;99.90;;;;;;4993631;28;20560;-78
2021/10/03 09:37:23;;;;;;;6.40;3.70;;;19.80;99.90;;;;;;4993583;28;20563;-78
2021/10/03 09:39:50;;;;;;;5.53;3.90;;;19.80;99.90;;;;;;5031869;28;20517;-77
2021/10/03 09:42:17;;;;;;;6.13;3.63;;;19.80;99.90;;;;;;5053900;28;20449;-77
2021/10/03 09:45:10;;;;;;;5.50;4.10;;;19.90;99.90;;;;;;5053800;28;20476;-77
2021/10/03 09:47:37;;;;;;;4.80;3.50;;;19.90;99.90;;;;;;5054124;28;20471;-77
2021/10/03 09:50:06;;;;;;;5.87;3.80;;;20.00;99.90;;;;;;5053803;28;20792;-77
2021/10/03 09:52:33;;;;;;;5.40;4.00;;;19.90;99.90;;;;;;5053927;28;20410;-77
2021/10/03 09:55:04;;;;;;;5.70;3.50;;;20.00;99.90;;;;;;5053710;28;20434;-77
2021/10/03 09:57:30;;;;;;;8.53;4.93;;;20.10;99.90;;;;;;5054347;28;20425;-77
2021/10/03 09:59:57;;;;;;;6.93;4.30;;;20.00;99.90;;;;;;5053761;28;20418;-78
2021/10/03 10:02:24;;;;;;;7.67;4.27;;;20.10;99.90;;;;;;5053724;28;20418;-77
2021/10/03 10:04:50;;;;;;;6.97;3.77;;;20.00;99.90;;;;;;5053971;28;20523;-78
2021/10/03 10:07:16;;;;;;;6.10;4.27;;;20.10;99.90;;;;;;5053997;28;20419;-77
2021/10/03 10:09:45;;;;;;;5.93;4.10;;;20.00;99.90;;;;;;5054067;28;20682;-77
2021/10/03 10:12:21;;;;;;;7.20;5.00;;;20.10;99.90;;;;;;5053801;28;20418;-77
2021/10/03 10:14:56;;;;;;;8.90;4.30;;;20.00;99.90;;;;;;5053887;28;20988;-78
2021/10/03 10:17:35;;;;;;;6.40;3.60;;;20.10;99.90;;;;;;5053859;28;20418;-77
2021/10/03 10:20:20;;;;;;;8.10;4.43;;;20.10;99.90;;;;;;5053178;28;20434;-76
2021/10/03 10:22:54;;;;;;;6.80;4.30;;;20.20;99.90;;;;;;5053087;28;20445;-77
2021/10/03 10:25:48;;;;;;;6.43;4.10;;;20.20;99.90;;;;;;5053533;28;20516;-76
2021/10/03 10:28:16;;;;;;;5.13;4.00;;;20.20;99.90;;;;;;5054097;28;20414;-77
2021/10/03 10:31:11;;;;;;;7.37;4.93;;;20.20;99.90;;;;;;5053851;28;20454;-77
2021/10/03 10:33:53;;;;;;;7.40;4.40;;;20.20;99.90;;;;;;5053631;28;20541;-77
2021/10/03 10:36:23;;;;;;;6.00;4.33;;;20.30;99.90;;;;;;5054006;28;20489;-77
2021/10/03 10:39:07;;;;;;;6.50;3.93;;;20.30;99.90;;;;;;5054423;28;20424;-78
2021/10/03 10:41:35;;;;;;;6.30;4.17;;;20.30;99.90;;;;;;5055009;28;20429;-77
2021/10/03 10:44:21;;;;;;;8.53;4.27;;;20.30;99.90;;;;;;5054179;28;20466;-76
2021/10/03 10:46:49;;;;;;;6.57;4.50;;;20.30;99.90;;;;;;5054197;28;20426;-76
2021/10/03 10:49:27;;;;;;;7.00;4.40;;;20.30;99.90;;;;;;5054496;28;20921;-77
2021/10/03 10:52:19;;;;;;;6.33;4.07;;;20.20;99.90;;;;;;5054289;28;20789;-77
2021/10/03 10:55:21;;;;;;;5.23;3.70;;;20.30;99.90;;;;;;5044050;28;20949;-77
2021/10/03 10:57:49;;;;;;;5.70;4.00;;;20.30;99.90;;;;;;5047675;28;20775;-76
2021/10/03 11:00:22;;;;;;;6.40;4.47;;;20.30;99.90;;;;;;5054757;28;20430;-78
2021/10/03 11:02:49;;;;;;;5.87;3.53;;;20.40;99.90;;;;;;5054848;28;20426;-77
2021/10/03 11:08:28;;;;;;;6.90;5.10;;;20.40;99.90;;;;;;5037964;28;20450;-77
2021/10/03 11:11:00;;;;;;;6.90;4.53;;;20.40;99.90;;;;;;5054103;28;20418;-77
2021/10/03 11:13:41;;;;;;;7.00;4.37;;;20.50;99.90;;;;;;5053782;28;20183;-78
2021/10/03 11:16:20;;;;;;;6.90;4.50;;;20.50;99.90;;;;;;5054535;28;20982;-77
2021/10/03 11:18:55;;;;;;;6.63;4.50;;;20.50;99.90;;;;;;5054439;28;20518;-77
2021/10/03 11:21:33;;;;;;;5.77;3.80;;;20.60;99.90;;;;;;5054488;28;20512;-77
2021/10/03 11:24:00;;;;;;;7.33;3.93;;;20.60;99.90;;;;;;5075010;22;20497;-78
2021/10/03 11:26:27;;;;;;;6.50;4.80;;;20.70;99.90;;;;;;5073901;28;20505;-78
2021/10/03 11:28:55;;;;;;;7.57;4.53;;;20.70;99.90;;;;;;5073497;28;20418;-78
2021/10/03 11:31:44;;;;;;;7.63;3.87;;;20.70;99.90;;;;;;5072448;28;20935;-78
2021/10/03 11:34:23;;;;;;;6.27;3.90;;;20.80;99.90;;;;;;5073209;28;20455;-77
2021/10/03 11:36:50;;;;;;;6.80;4.23;;;20.80;99.90;;;;;;5073163;28;20496;-78
2021/10/03 11:39:16;;;;;;;6.07;3.80;;;20.80;99.90;;;;;;5072990;28;20433;-77
2021/10/03 11:41:49;;;;;;;7.93;4.23;;;20.70;99.90;;;;;;5072711;28;20464;-77
2021/10/03 11:44:22;;;;;;;5.10;4.20;;;20.70;99.90;;;;;;5072403;28;20483;-77
2021/10/03 11:46:58;;;;;;;8.90;4.07;;;20.70;99.90;;;;;;5072833;28;20453;-78
2021/10/03 11:49:29;;;;;;;6.30;4.10;;;20.70;99.90;;;;;;5072458;28;20478;-77
2021/10/03 11:51:57;;;;;;;7.07;4.57;;;20.80;99.90;;;;;;5071953;28;20409;-77
2021/10/03 11:54:46;;;;;;;5.63;4.20;;;20.80;99.90;;;;;;5072056;28;20472;-77
2021/10/03 11:57:29;;;;;;;7.10;3.77;;;20.70;99.90;;;;;;5072332;28;20464;-78
2021/10/03 12:00:05;;;;;;;5.50;4.10;;;20.70;99.90;;;;;;5072840;28;20440;-77
2021/10/03 12:02:40;;;;;;;5.60;4.00;;;20.70;99.90;;;;;;5071957;28;20432;-77
2021/10/03 12:05:07;;;;;;;7.83;4.13;;;20.80;99.90;;;;;;5072214;28;20876;-77
2021/10/03 12:07:34;;;;;;;5.50;3.97;;;20.80;99.90;;;;;;5071514;28;20432;-77
2021/10/03 12:10:12;;;;;;;5.00;3.77;;;20.90;99.90;;;;;;5072469;28;20421;-77
2021/10/03 12:12:45;;;;;;;6.60;3.80;;;20.90;99.90;;;;;;5072034;28;20424;-78
2021/10/03 12:15:36;;;;;;;6.60;4.23;;;20.90;99.90;;;;;;5072001;28;20532;-77
2021/10/03 12:18:03;;;;;;;7.30;4.43;;;21.00;99.90;;;;;;5071440;28;20860;-79
2021/10/03 12:20:47;;;;;;;6.67;3.17;;;21.10;99.90;;;;;;5072020;28;20432;-77
2021/10/03 12:23:13;;;;;;;6.27;3.87;;;21.10;99.90;;;;;;5071254;28;20418;-77
2021/10/03 12:25:40;;;;;;;6.83;4.03;;;21.10;99.90;;;;;;5071930;28;20480;-77
2021/10/03 12:28:06;;;;;;;6.00;4.07;;;21.20;99.90;;;;;;5071831;28;20189;-78
2021/10/03 12:30:52;;;;;;;6.60;3.80;;;21.10;99.90;;;;;;5072286;28;20429;-77
2021/10/03 12:33:18;;;;;;;6.47;3.63;;;21.00;99.90;;;;;;5071704;28;20608;-77
2021/10/03 12:36:04;;;;;;;8.00;3.23;;;21.00;99.90;;;;;;5071316;28;20443;-77
2021/10/03 12:38:30;;;;;;;5.00;3.53;;;21.10;99.90;;;;;;5071017;28;20932;-78
2021/10/03 12:40:57;;;;;;;6.33;3.40;;;21.10;99.90;;;;;;5072424;28;20425;-78
2021/10/03 12:43:25;;;;;;;5.40;3.27;;;21.20;99.90;;;;;;5080573;28;20456;-79
2021/10/03 12:45:51;;;;;;;6.27;3.50;;;21.20;99.90;;;;;;5082354;28;20413;-78
2021/10/03 12:48:17;;;;;;;5.50;3.30;;;21.20;99.90;;;;;;5081911;28;20444;-77
2021/10/03 12:50:45;;;;;;;4.60;3.40;;;21.20;99.90;;;;;;5081005;28;20424;-78
2021/10/03 12:53:11;;;;;;;6.83;3.60;;;21.30;99.90;;;;;;5079878;28;20432;-78
2021/10/03 12:55:37;;;;;;;5.60;3.93;;;21.20;99.90;;;;;;5080694;28;20433;-78
2021/10/03 12:58:02;;;;;;;6.00;3.40;;;21.20;99.90;;;;;;5080212;28;20475;-78
2021/10/03 13:00:28;;;;;;;4.77;3.23;;;21.30;99.90;;;;;;5079180;28;20189;-78
2021/10/03 13:02:55;;;;;;;4.23;3.17;;;21.30;99.90;;;;;;5079110;28;20199;-78